Time;durP1;ratioP1;P1;durP2;ratioP2;P2;SDS_P1;SDS_P2;PMS_P1;PMS_P2;Temp;Humidity;BMP_temperature;BMP_pressure;BME280_temperature;BME280_humidity;BME280_pressure;Samples;Min_cycle;Max_cycle;Signal;HPM_P1;HPM_P2
2023/01/29 00:01:10;;;;;;;5.28;4.10;;;;;;;-1.17;96.79;100196.56;5085011;28;20052;-78
2023/01/29 00:03:37;;;;;;;5.47;3.63;;;;;;;-1.11;96.15;100200.72;5086096;28;20044;-78
2023/01/29 00:06:06;;;;;;;8.85;5.05;;;;;;;-1.33;97.46;100169.00;5077975;28;20499;-78
2023/01/29 00:08:33;;;;;;;9.20;4.47;;;;;;;-1.21;97.68;100195.00;5080853;28;20059;-78
2023/01/29 00:11:02;;;;;;;8.52;4.40;;;;;;;-1.15;97.56;100193.81;5079610;28;20056;-78
2023/01/29 00:13:29;;;;;;;5.90;3.72;;;;;;;-1.29;96.36;100167.91;5080580;28;20044;-77
2023/01/29 00:15:58;;;;;;;5.78;3.38;;;;;;;-1.23;96.62;100180.03;5078206;28;20048;-78
2023/01/29 00:18:26;;;;;;;4.38;3.35;;;;;;;-1.20;96.61;100183.41;5082187;28;20090;-77
2023/01/29 00:20:53;;;;;;;5.55;3.65;;;;;;;-1.15;95.69;100185.81;5074044;28;20056;-78
2023/01/29 00:23:20;;;;;;;5.28;3.97;;;;;;;-1.26;96.19;100194.41;5081122;28;20246;-78
2023/01/29 00:25:47;;;;;;;4.40;3.42;;;;;;;-1.26;96.54;100189.09;5082077;28;20483;-78
2023/01/29 00:28:15;;;;;;;5.88;4.28;;;;;;;-1.41;97.17;100165.91;5078245;28;20091;-78
2023/01/29 00:30:42;;;;;;;6.40;3.95;;;;;;;-1.24;96.84;100189.84;5075792;28;20055;-78
2023/01/29 00:33:10;;;;;;;7.45;4.07;;;;;;;-1.28;98.09;100182.94;5084082;28;20062;-78
2023/01/29 00:35:40;;;;;;;5.20;3.55;;;;;;;-1.32;97.87;100166.25;5069302;28;20044;-78
2023/01/29 00:38:06;;;;;;;10.02;4.45;;;;;;;-1.18;97.15;100184.16;5081041;28;20051;-78
2023/01/29 00:44:56;;;;;;;6.70;3.97;;;;;;;-1.31;98.03;100169.78;5090546;28;20044;-78
2023/01/29 00:46:06;;;;;;;8.77;4.53;;;;;;;-1.20;98.72;100194.06;5082060;28;20067;-78
2023/01/29 00:48:33;;;;;;;5.32;3.88;;;;;;;-1.19;98.14;100186.94;5083196;28;20400;-78
2023/01/29 00:51:00;;;;;;;5.85;4.13;;;;;;;-1.15;98.34;100196.50;5086132;28;20052;-78
2023/01/29 00:53:27;;;;;;;5.05;3.67;;;;;;;-1.37;99.68;100175.47;5075257;28;20098;-78
2023/01/29 00:55:53;;;;;;;5.72;4.38;;;;;;;-1.32;99.14;100174.25;5085875;28;20626;-78
2023/01/29 00:58:27;;;;;;;5.95;4.15;;;;;;;-1.29;99.25;100194.59;5092096;28;20056;-78
2023/01/29 01:00:54;;;;;;;7.68;4.60;;;;;;;-1.30;99.36;100193.72;5087743;28;20086;-78
2023/01/29 01:03:20;;;;;;;7.03;4.82;;;;;;;-1.48;99.43;100168.03;5084557;28;20468;-78
2023/01/29 01:05:46;;;;;;;8.25;4.68;;;;;;;-1.30;99.68;100199.03;5091262;28;20067;-78
2023/01/29 01:11:02;;;;;;;7.10;4.15;;;;;;;-1.40;98.85;100160.50;5081656;28;20195;-78
2023/01/29 01:13:31;;;;;;;6.53;3.97;;;;;;;-1.22;98.55;100179.94;5075954;28;20036;-78
2023/01/29 01:15:58;;;;;;;9.43;4.43;;;;;;;-1.32;98.41;100166.25;5092937;28;20044;-78
2023/01/29 01:18:24;;;;;;;10.40;4.50;;;;;;;-1.23;98.35;100180.91;5090882;28;20044;-78
2023/01/29 01:20:57;;;;;;;7.65;4.63;;;;;;;-1.36;98.58;100171.84;5083313;28;20399;-78
2023/01/29 01:23:24;;;;;;;6.38;4.00;;;;;;;-1.38;99.46;100158.59;5083178;28;20044;-78
2023/01/29 01:25:50;;;;;;;5.68;3.95;;;;;;;-1.21;98.57;100173.66;5082420;28;20059;-78
2023/01/29 01:28:17;;;;;;;8.20;4.07;;;;;;;-1.23;98.02;100185.38;5079333;28;20151;-78
2023/01/29 01:30:45;;;;;;;5.50;3.83;;;;;;;-1.20;98.33;100193.22;5085287;28;20051;-78
2023/01/29 01:33:11;;;;;;;5.10;3.63;;;;;;;-1.37;97.88;100159.44;5082266;28;20567;-78
2023/01/29 01:35:38;;;;;;;6.82;4.13;;;;;;;-1.43;99.33;100176.66;5089026;28;20060;-78
2023/01/29 01:38:05;;;;;;;7.90;4.68;;;;;;;-1.50;99.31;100162.78;5076932;28;20522;-78
2023/01/29 01:40:31;;;;;;;7.97;5.32;;;;;;;-1.50;99.37;100144.13;5090461;28;20054;-78
2023/01/29 01:43:00;;;;;;;6.85;4.45;;;;;;;-1.27;99.13;100182.88;5076439;28;20097;-78
2023/01/29 01:45:29;;;;;;;8.35;4.47;;;;;;;-1.46;97.81;100147.47;5086455;28;20048;-78
2023/01/29 01:48:02;;;;;;;4.15;3.30;;;;;;;-1.45;98.34;100152.72;5087838;28;20052;-78
2023/01/29 01:50:33;;;;;;;5.95;3.80;;;;;;;-1.56;99.42;100149.81;5074524;28;20052;-78
2023/01/29 01:53:04;;;;;;;8.55;4.20;;;;;;;-1.45;99.02;100155.38;5080405;28;20044;-78
2023/01/29 01:55:33;;;;;;;8.73;4.82;;;;;;;-1.35;99.35;100170.91;5084109;28;20048;-78
2023/01/29 01:58:04;;;;;;;6.25;4.00;;;;;;;-1.34;98.81;100170.84;5090994;28;20048;-78
2023/01/29 02:00:31;;;;;;;7.18;3.97;;;;;;;-1.38;99.46;100163.09;5091137;28;20507;-78
2023/01/29 02:11:21;;;;;;;6.95;4.45;;;;;;;-1.37;97.84;100188.78;5081483;28;20503;-78
2023/01/29 02:13:52;;;;;;;7.80;3.92;;;;;;;-1.42;98.58;100165.03;5084813;28;20244;-78
2023/01/29 02:16:19;;;;;;;4.47;3.88;;;;;;;-1.51;98.16;100179.72;5089234;28;20048;-78
2023/01/29 02:18:46;;;;;;;7.65;4.70;;;;;;;-1.69;98.39;100157.59;5084902;28;20505;-77
2023/01/29 02:21:35;;;;;;;8.38;3.97;;;;;;;-1.58;99.90;100181.03;5090358;28;20052;-78
2023/01/29 02:24:41;;;;;;;9.70;4.15;;;;;;;-1.60;99.17;100169.56;5083680;28;20515;-78
2023/01/29 02:27:10;;;;;;;4.50;3.83;;;;;;;-1.35;97.90;100194.94;5083937;28;21379;-77
2023/01/29 02:29:50;;;;;;;4.50;3.88;;;;;;;-1.44;98.12;100164.28;5088413;28;20439;-78
2023/01/29 02:32:22;;;;;;;5.43;4.00;;;;;;;-1.45;97.84;100179.41;5079411;28;20499;-77
2023/01/29 02:37:55;;;;;;;8.77;4.43;;;;;;;-1.59;97.53;100173.13;5082634;28;20056;-78
2023/01/29 02:40:29;;;;;;;8.20;4.35;;;;;;;-1.62;98.72;100190.97;5077309;28;20056;-77
2023/01/29 02:43:06;;;;;;;7.68;5.00;;;;;;;-1.53;98.83;100188.78;5089948;28;20051;-77
2023/01/29 02:45:43;;;;;;;6.88;4.25;;;;;;;-1.73;98.63;100157.84;5086534;28;20033;-77
2023/01/29 02:48:14;;;;;;;7.32;4.10;;;;;;;-1.82;98.50;100159.22;5090652;28;20064;-77
2023/01/29 02:50:45;;;;;;;7.60;4.32;;;;;;;-1.65;98.86;100187.63;5083246;28;20048;-77
2023/01/29 02:53:15;;;;;;;7.57;4.80;;;;;;;-1.70;100.00;100174.56;5086012;28;20055;-77
2023/01/29 02:55:47;;;;;;;7.70;4.90;;;;;;;-1.82;100.00;100153.88;5090018;28;20051;-77
2023/01/29 02:58:21;;;;;;;9.25;4.15;;;;;;;-1.85;100.00;100151.34;5084165;28;20056;-77
2023/01/29 03:00:49;;;;;;;5.63;4.10;;;;;;;-1.71;100.00;100177.31;5080444;28;20044;-77
2023/01/29 03:03:20;;;;;;;5.85;4.45;;;;;;;-1.88;100.00;100157.72;5084747;28;20500;-78
2023/01/29 03:05:53;;;;;;;5.30;3.42;;;;;;;-1.88;100.00;100175.50;5082750;28;20052;-78
2023/01/29 03:08:36;;;;;;;5.97;4.05;;;;;;;-1.74;100.00;100193.47;5080278;28;20052;-76
2023/01/29 03:11:05;;;;;;;7.15;4.60;;;;;;;-1.79;100.00;100177.72;5070622;28;20056;-77
2023/01/29 03:13:39;;;;;;;7.55;4.60;;;;;;;-1.67;99.71;100179.72;5075040;28;20040;-77
2023/01/29 03:16:14;;;;;;;8.18;4.55;;;;;;;-1.70;98.07;100182.53;5090034;28;20048;-77
2023/01/29 03:18:45;;;;;;;6.68;4.32;;;;;;;-1.93;99.04;100150.91;5088281;28;20048;-77
2023/01/29 03:32:20;;;;;;;6.47;4.75;;;;;;;-1.85;99.72;100159.34;5082426;28;20059;-77
2023/01/29 03:34:50;;;;;;;7.50;4.32;;;;;;;-1.69;99.66;100175.41;5085594;28;20393;-77
2023/01/29 03:37:23;;;;;;;9.80;4.90;;;;;;;-1.72;100.00;100175.56;5087397;28;20067;-77
2023/01/29 03:39:50;;;;;;;6.22;4.10;;;;;;;-1.94;100.00;100150.06;5088076;28;20055;-77
2023/01/29 03:42:22;;;;;;;8.02;4.45;;;;;;;-1.94;100.00;100152.72;5089436;28;20067;-77
2023/01/29 03:44:59;;;;;;;6.50;4.88;;;;;;;-2.00;100.00;100145.91;5089811;28;20055;-77
2023/01/29 03:47:40;;;;;;;8.30;4.97;;;;;;;-2.01;100.00;100146.84;5089714;28;20181;-77
2023/01/29 03:50:11;;;;;;;5.07;3.85;;;;;;;-1.98;100.00;100159.16;5083656;28;20051;-77
2023/01/29 03:52:44;;;;;;;5.85;4.28;;;;;;;-2.03;100.00;100150.50;5088625;28;20242;-77
2023/01/29 03:55:17;;;;;;;8.73;4.78;;;;;;;-1.92;100.00;100169.47;5089026;28;20051;-77
2023/01/29 03:57:52;;;;;;;7.57;4.88;;;;;;;-1.98;100.00;100151.16;5084475;28;20057;-77
2023/01/29 04:00:24;;;;;;;7.22;4.63;;;;;;;-1.95;100.00;100153.66;5087774;28;20483;-77
2023/01/29 04:02:57;;;;;;;5.90;3.72;;;;;;;-1.89;100.00;100173.81;5089679;28;20055;-77
2023/01/29 04:05:27;;;;;;;7.38;5.05;;;;;;;-1.74;100.00;100178.31;5090004;28;20082;-77
2023/01/29 04:08:02;;;;;;;7.22;4.38;;;;;;;-1.82;100.00;100184.06;5076720;28;20388;-77
2023/01/29 04:10:31;;;;;;;9.30;4.93;;;;;;;-1.91;100.00;100157.00;5082334;28;20410;-77
2023/01/29 04:13:01;;;;;;;7.32;4.50;;;;;;;-1.82;100.00;100186.72;5083953;28;20055;-77
2023/01/29 04:15:31;;;;;;;7.78;4.55;;;;;;;-1.82;100.00;100181.38;5091468;28;20051;-77
2023/01/29 04:17:59;;;;;;;6.13;4.47;;;;;;;-1.86;100.00;100181.63;5085748;28;20059;-77
2023/01/29 04:20:25;;;;;;;7.25;4.45;;;;;;;-1.86;100.00;100193.16;5083332;28;20484;-77
2023/01/29 04:22:52;;;;;;;7.68;4.22;;;;;;;-1.96;100.00;100189.22;5089714;28;20614;-77
2023/01/29 04:25:25;;;;;;;5.88;3.88;;;;;;;-2.07;100.00;100168.47;5087470;28;20044;-77
2023/01/29 04:27:58;;;;;;;6.53;4.68;;;;;;;-2.05;100.00;100161.25;5086620;28;20129;-77
2023/01/29 04:30:35;;;;;;;8.98;4.82;;;;;;;-1.92;100.00;100161.50;5087644;28;20487;-77
2023/01/29 04:33:12;;;;;;;7.43;4.30;;;;;;;-1.96;100.00;100173.25;5089262;28;20040;-77
2023/01/29 04:35:53;;;;;;;7.18;4.90;;;;;;;-1.89;100.00;100201.31;5089993;28;20499;-77
2023/01/29 04:38:42;;;;;;;5.25;4.00;;;;;;;-2.16;100.00;100174.28;5088787;28;20071;-77
2023/01/29 04:41:16;;;;;;;8.20;4.88;;;;;;;-2.05;100.00;100205.72;5082788;28;20048;-77
2023/01/29 04:43:51;;;;;;;7.35;4.80;;;;;;;-2.09;100.00;100205.00;5087759;28;20044;-77
2023/01/29 04:46:26;;;;;;;7.78;4.60;;;;;;;-2.13;100.00;100193.63;5085755;28;20511;-77
2023/01/29 04:49:10;;;;;;;8.73;4.60;;;;;;;-2.19;100.00;100180.63;5088097;28;20052;-77
2023/01/29 04:51:48;;;;;;;11.30;5.60;;;;;;;-2.16;100.00;100185.78;5088979;28;20059;-77
2023/01/29 04:54:22;;;;;;;10.20;5.80;;;;;;;-2.16;100.00;100177.81;5083109;28;20396;-77
2023/01/29 04:56:55;;;;;;;10.63;5.15;;;;;;;-2.09;100.00;100177.47;5090213;28;20070;-77
2023/01/29 04:59:28;;;;;;;8.73;5.25;;;;;;;-2.23;100.00;100171.09;5085217;28;20060;-77
2023/01/29 05:01:55;;;;;;;9.57;5.70;;;;;;;-2.22;100.00;100183.44;5086369;28;20063;-77
2023/01/29 05:04:25;;;;;;;8.85;5.25;;;;;;;-2.33;100.00;100165.34;5090183;28;20051;-77
2023/01/29 05:06:52;;;;;;;6.80;4.80;;;;;;;-2.25;100.00;100177.44;5080726;28;20079;-77
2023/01/29 05:09:19;;;;;;;10.07;6.65;;;;;;;-2.16;100.00;100198.28;5089002;28;20051;-77
2023/01/29 05:11:47;;;;;;;8.48;4.88;;;;;;;-2.25;100.00;100172.09;5089807;28;20094;-77
2023/01/29 05:14:17;;;;;;;8.88;5.05;;;;;;;-2.24;100.00;100172.03;5080572;28;20431;-77
2023/01/29 05:16:45;;;;;;;;;;;;;;;-2.15;100.00;100200.00;5086795;28;20040;-77
2023/01/29 05:19:14;;;;;;;7.40;4.97;;;;;;;-2.28;100.00;100169.59;5084640;28;20280;-77
2023/01/29 05:21:44;;;;;;;10.17;4.63;;;;;;;-2.21;100.00;100195.00;5084764;28;20044;-77
2023/01/29 05:24:13;;;;;;;8.65;5.35;;;;;;;-2.35;100.00;100193.88;5088293;28;20320;-77
2023/01/29 05:29:26;;;;;;;6.45;4.38;;;;;;;-2.16;100.00;100209.78;5089257;28;20065;-77
2023/01/29 05:31:52;;;;;;;13.88;5.47;;;;;;;-2.10;100.00;100202.44;5092192;28;20044;-77
2023/01/29 05:34:18;;;;;;;6.60;4.60;;;;;;;-2.16;100.00;100172.47;5093338;28;20056;-77
2023/01/29 05:36:46;;;;;;;8.20;4.90;;;;;;;-2.25;100.00;100172.94;5088129;28;20048;-77
2023/01/29 05:39:13;;;;;;;7.55;4.90;;;;;;;-2.22;100.00;100172.78;5091064;28;20134;-77
2023/01/29 05:41:39;;;;;;;8.50;4.80;;;;;;;-2.31;100.00;100158.13;5088431;28;20139;-77
2023/01/29 05:44:06;;;;;;;9.60;5.38;;;;;;;-2.17;100.00;100156.56;5090021;28;20052;-77
2023/01/29 05:46:32;;;;;;;8.07;5.65;;;;;;;-2.15;100.00;100157.38;5088572;28;20085;-77
2023/01/29 05:48:59;;;;;;;11.75;5.53;;;;;;;-2.28;100.00;100119.84;5092368;28;20051;-77
2023/01/29 05:51:25;;;;;;;6.72;4.80;;;;;;;-2.35;100.00;100129.97;5091091;28;20052;-77
2023/01/29 05:53:53;;;;;;;7.32;5.07;;;;;;;-2.46;100.00;100132.31;5089429;28;20047;-77
2023/01/29 05:56:20;;;;;;;8.07;4.50;;;;;;;-2.33;100.00;100154.72;5083567;28;20491;-77
2023/01/29 05:58:47;;;;;;;7.47;5.00;;;;;;;-2.42;100.00;100149.00;5084419;28;20414;-77
2023/01/29 06:01:15;;;;;;;8.65;4.90;;;;;;;-2.43;100.00;100145.47;5090884;28;20052;-77
2023/01/29 06:03:41;;;;;;;12.35;5.05;;;;;;;-2.45;100.00;100136.69;5092008;28;20502;-77
2023/01/29 06:06:09;;;;;;;7.82;5.13;;;;;;;-2.34;100.00;100165.44;5091272;28;20052;-77
2023/01/29 06:08:35;;;;;;;6.95;5.05;;;;;;;-2.34;100.00;100178.75;5089032;28;20105;-77
2023/01/29 06:11:03;;;;;;;7.40;5.43;;;;;;;-2.35;100.00;100150.38;5088834;28;20044;-77
2023/01/29 06:13:30;;;;;;;7.60;4.80;;;;;;;-2.21;100.00;100168.34;5080514;28;20044;-77
2023/01/29 06:15:56;;;;;;;11.63;5.55;;;;;;;-2.08;100.00;100180.06;5088315;28;20043;-78
2023/01/29 06:18:23;;;;;;;9.50;5.55;;;;;;;-2.29;100.00;100154.53;5088890;28;20064;-78
2023/01/29 06:20:49;;;;;;;11.60;5.85;;;;;;;-2.23;100.00;100156.88;5082449;28;20044;-77
2023/01/29 06:23:16;;;;;;;11.88;5.40;;;;;;;-2.13;100.00;100161.66;5088825;28;20048;-78
2023/01/29 06:25:42;;;;;;;11.27;4.68;;;;;;;-2.36;100.00;100144.22;5094559;28;20052;-77
2023/01/29 06:28:10;;;;;;;8.02;5.03;;;;;;;-2.18;100.00;100165.53;5082051;28;20416;-77
2023/01/29 06:30:37;;;;;;;7.70;5.00;;;;;;;-2.20;100.00;100176.25;5089434;28;20400;-77
2023/01/29 06:33:03;;;;;;;7.15;4.80;;;;;;;-2.34;100.00;100150.31;5086865;28;20055;-77
2023/01/29 06:35:30;;;;;;;12.82;5.80;;;;;;;-2.32;100.00;100161.75;5093307;28;20052;-77
2023/01/29 06:37:56;;;;;;;9.18;5.00;;;;;;;-2.29;100.00;100176.72;5084385;28;20318;-77
2023/01/29 06:40:23;;;;;;;8.00;5.43;;;;;;;-2.31;100.00;100170.59;5092763;28;20044;-77
2023/01/29 06:42:49;;;;;;;8.27;4.97;;;;;;;-2.16;100.00;100176.97;5083295;28;20051;-77
2023/01/29 06:45:17;;;;;;;10.32;6.03;;;;;;;-2.37;100.00;100154.94;5081789;28;20507;-77
2023/01/29 06:47:44;;;;;;;13.07;5.28;;;;;;;-2.40;100.00;100155.09;5087162;28;20063;-77
2023/01/29 06:50:11;;;;;;;8.77;6.07;;;;;;;-2.38;100.00;100139.91;5084344;28;20509;-77
2023/01/29 06:52:38;;;;;;;11.00;6.95;;;;;;;-2.47;100.00;100151.88;5091424;28;20048;-77
2023/01/29 06:55:05;;;;;;;9.98;6.90;;;;;;;-2.35;100.00;100175.25;5092831;28;20051;-77
2023/01/29 06:57:32;;;;;;;10.10;5.82;;;;;;;-2.51;100.00;100177.81;5085405;28;20487;-77
2023/01/29 06:59:58;;;;;;;11.55;5.55;;;;;;;-2.51;100.00;100172.47;5092454;28;20055;-77
2023/01/29 07:02:26;;;;;;;10.30;5.45;;;;;;;-2.41;100.00;100178.22;5080818;28;20044;-77
2023/01/29 07:04:53;;;;;;;10.68;5.50;;;;;;;-2.55;100.00;100165.56;5088209;28;20047;-78
2023/01/29 07:07:19;;;;;;;10.93;5.43;;;;;;;-2.35;100.00;100193.88;5090164;28;20058;-78
2023/01/29 07:09:46;;;;;;;9.43;5.82;;;;;;;-2.51;100.00;100176.94;5092560;28;20117;-78
2023/01/29 07:12:12;;;;;;;8.38;5.28;;;;;;;-2.36;100.00;100196.63;5091683;28;20063;-78
2023/01/29 07:14:39;;;;;;;7.40;5.13;;;;;;;-2.40;100.00;100187.06;5092551;28;20052;-78
2023/01/29 07:17:05;;;;;;;12.23;5.22;;;;;;;-2.38;100.00;100185.16;5086030;28;20048;-78
2023/01/29 07:19:33;;;;;;;8.00;5.10;;;;;;;-2.44;100.00;100166.84;5090077;28;20051;-78
2023/01/29 07:22:01;;;;;;;7.78;5.20;;;;;;;-2.44;100.00;100173.00;5081056;28;20051;-78
2023/01/29 07:24:27;;;;;;;9.88;5.43;;;;;;;-2.36;100.00;100212.59;5085155;28;20563;-78
2023/01/29 07:26:54;;;;;;;7.85;5.30;;;;;;;-2.36;100.00;100199.28;5083365;28;20395;-78
2023/01/29 07:29:23;;;;;;;6.75;4.72;;;;;;;-2.62;100.00;100184.59;5086422;28;20174;-80
2023/01/29 07:31:50;;;;;;;10.32;4.95;;;;;;;-2.58;100.00;100192.34;5090431;28;20054;-79
2023/01/29 07:34:16;;;;;;;10.48;5.63;;;;;;;-2.37;100.00;100211.72;5091963;28;20430;-78
2023/01/29 07:36:44;;;;;;;10.52;5.55;;;;;;;-2.26;100.00;100208.50;5088436;28;20040;-77
2023/01/29 07:39:11;;;;;;;12.38;5.10;;;;;;;-2.33;100.00;100213.31;5084165;28;20051;-77
2023/01/29 07:41:37;;;;;;;9.55;5.32;;;;;;;-2.40;100.00;100185.25;5073781;28;20100;-77
2023/01/29 07:44:04;;;;;;;10.68;5.32;;;;;;;-2.41;100.00;100188.88;5072379;28;20055;-78
2023/01/29 07:46:31;;;;;;;7.30;5.10;;;;;;;-2.41;100.00;100182.66;5072745;28;20052;-78
2023/01/29 07:48:58;;;;;;;8.73;4.78;;;;;;;-2.41;100.00;100206.63;5077226;28;20476;-78
2023/01/29 07:51:24;;;;;;;7.82;5.13;;;;;;;-2.23;100.00;100220.81;5092551;28;20047;-77
2023/01/29 07:53:53;;;;;;;7.93;4.93;;;;;;;-2.46;100.00;100200.69;5080224;28;20054;-78
2023/01/29 07:56:19;;;;;;;9.85;4.88;;;;;;;-2.36;100.00;100191.31;5091364;28;20048;-78
2023/01/29 07:58:46;;;;;;;10.88;5.57;;;;;;;-2.24;100.00;100213.75;5079248;28;20059;-78
2023/01/29 08:01:13;;;;;;;12.63;6.38;;;;;;;-2.20;100.00;100213.56;5085316;28;20052;-77
2023/01/29 08:03:39;;;;;;;11.23;6.18;;;;;;;-2.18;100.00;100206.34;5090539;28;20048;-78
2023/01/29 08:06:06;;;;;;;8.90;5.03;;;;;;;-2.21;100.00;100205.66;5089186;28;20040;-78
2023/01/29 08:08:32;;;;;;;10.85;5.97;;;;;;;-2.11;100.00;100225.53;5089076;28;20040;-78
2023/01/29 08:11:02;;;;;;;12.20;6.47;;;;;;;-2.09;100.00;100220.13;5091082;28;20530;-77
2023/01/29 08:13:30;;;;;;;8.60;4.90;;;;;;;-2.19;100.00;100201.94;5088868;28;20064;-78
2023/01/29 08:15:59;;;;;;;9.55;5.38;;;;;;;-2.02;100.00;100230.41;5077957;28;20044;-78
2023/01/29 08:18:25;;;;;;;9.27;5.88;;;;;;;-2.20;100.00;100204.69;5088400;28;20051;-78
2023/01/29 08:20:52;;;;;;;7.75;5.32;;;;;;;-1.92;100.00;100227.28;5091061;28;20052;-78
2023/01/29 08:23:19;;;;;;;10.15;5.03;;;;;;;-2.10;100.00;100211.28;5082058;28;20052;-78
2023/01/29 08:25:45;;;;;;;7.40;5.18;;;;;;;-1.98;100.00;100223.97;5086625;28;20048;-78
2023/01/29 08:28:13;;;;;;;10.93;5.22;;;;;;;-1.99;100.00;100219.59;5089161;28;20044;-78
2023/01/29 08:30:40;;;;;;;7.93;4.85;;;;;;;-2.05;100.00;100233.19;5091304;28;20419;-78
2023/01/29 08:33:06;;;;;;;11.13;6.03;;;;;;;-1.85;100.00;100245.53;5089802;28;20523;-78
2023/01/29 08:35:33;;;;;;;7.75;5.32;;;;;;;-1.79;100.00;100245.22;5087188;28;20052;-78
2023/01/29 08:38:02;;;;;;;9.05;6.50;;;;;;;-1.85;100.00;100212.66;5083083;28;20057;-78
2023/01/29 08:40:31;;;;;;;12.27;7.22;;;;;;;-1.88;100.00;100212.81;5088336;28;20505;-78
2023/01/29 08:42:58;;;;;;;9.93;6.13;;;;;;;-1.74;100.00;100241.44;5089375;28;20048;-78
2023/01/29 08:45:26;;;;;;;15.88;8.40;;;;;;;-1.59;100.00;100234.44;5091027;28;20048;-77
2023/01/29 08:47:53;;;;;;;10.50;6.68;;;;;;;-1.46;99.76;100238.16;5084625;28;20506;-78
2023/01/29 08:50:19;;;;;;;12.63;6.20;;;;;;;-1.44;98.29;100239.81;5085884;28;20059;-78
2023/01/29 08:52:46;;;;;;;10.15;6.07;;;;;;;-1.36;97.82;100244.72;5089078;28;20052;-77
2023/01/29 08:55:13;;;;;;;151.50;55.72;;;;;;;-1.25;97.71;100249.47;5071450;28;20051;-77
2023/01/29 08:57:40;;;;;;;40.50;20.73;;;;;;;-1.31;95.80;100217.81;5083621;28;20045;-77
2023/01/29 09:00:08;;;;;;;11.00;6.45;;;;;;;-1.27;94.94;100238.03;5090476;28;20139;-77
2023/01/29 09:02:36;;;;;;;10.60;6.90;;;;;;;-1.31;97.47;100218.69;5086980;28;20356;-78
2023/01/29 09:05:03;;;;;;;24.95;13.02;;;;;;;-1.38;97.34;100227.09;5074013;28;20048;-77
2023/01/29 09:07:29;;;;;;;11.77;6.28;;;;;;;-1.15;96.49;100249.88;5083628;28;20057;-77
2023/01/29 09:09:56;;;;;;;20.38;12.80;;;;;;;-0.93;94.01;100269.09;5081958;28;20058;-78
2023/01/29 09:12:23;;;;;;;67.32;25.08;;;;;;;-1.13;92.77;100234.63;5085331;28;20055;-77
2023/01/29 09:14:49;;;;;;;48.83;24.25;;;;;;;-1.03;92.38;100245.66;5083729;28;20040;-78
2023/01/29 09:17:16;;;;;;;15.32;9.10;;;;;;;-0.95;92.01;100232.75;5093460;28;20052;-78
2023/01/29 09:19:44;;;;;;;24.42;12.77;;;;;;;-0.79;92.88;100249.63;5083918;28;20048;-77
2023/01/29 09:22:10;;;;;;;160.65;66.53;;;;;;;-0.93;91.20;100237.06;5087351;28;20056;-77
2023/01/29 09:24:37;;;;;;;45.15;21.08;;;;;;;-0.99;89.63;100257.91;5090597;28;20055;-77
2023/01/29 09:27:04;;;;;;;273.30;100.38;;;;;;;-0.92;88.71;100252.13;5088289;28;20048;-77
2023/01/29 09:29:30;;;;;;;72.28;33.60;;;;;;;-0.85;88.25;100252.66;5082455;28;20079;-77
2023/01/29 09:31:57;;;;;;;15.68;9.85;;;;;;;-0.67;87.33;100247.22;5089395;28;20044;-78
2023/01/29 09:34:27;;;;;;;40.42;21.10;;;;;;;-0.46;87.92;100267.38;5078961;28;20048;-77
2023/01/29 09:36:59;;;;;;;121.88;41.50;;;;;;;-0.65;86.93;100254.19;5083395;28;20556;-77
2023/01/29 09:39:26;;;;;;;20.65;9.60;;;;;;;-0.62;86.82;100218.44;5093800;28;20442;-77
2023/01/29 09:41:59;;;;;;;13.85;6.88;;;;;;;-0.31;85.81;100248.75;5085059;28;20096;-77
2023/01/29 09:44:43;;;;;;;24.08;11.02;;;;;;;-0.20;83.91;100232.94;5089042;28;20135;-77
2023/01/29 09:47:14;;;;;;;12.20;6.72;;;;;;;-0.06;83.13;100227.66;5092722;28;20503;-77
2023/01/29 09:49:44;;;;;;;10.02;5.97;;;;;;;-0.27;83.51;100202.16;5082275;28;20503;-77
2023/01/29 09:52:17;;;;;;;11.68;7.38;;;;;;;-0.42;83.67;100191.44;5090923;28;20465;-77
2023/01/29 09:54:52;;;;;;;11.90;6.63;;;;;;;-0.25;84.53;100200.28;5071560;28;20056;-77
2023/01/29 09:57:22;;;;;;;12.02;6.22;;;;;;;0.18;83.03;100192.34;5073592;28;20052;-78
2023/01/29 09:59:49;;;;;;;7.97;5.35;;;;;;;0.34;81.89;100195.81;5074827;28;20052;-78
2023/01/29 10:02:37;;;;;;;8.55;4.35;;;;;;;0.25;80.80;100187.50;5085669;28;20527;-77
2023/01/29 10:05:22;;;;;;;8.90;4.97;;;;;;;0.44;79.64;100204.16;5084353;28;20495;-77
2023/01/29 10:08:16;;;;;;;7.60;4.30;;;;;;;0.57;77.53;100200.69;5087936;28;20044;-78
2023/01/29 10:10:50;;;;;;;6.53;4.20;;;;;;;0.38;76.84;100179.56;5085142;28;20044;-77
2023/01/29 10:13:27;;;;;;;10.07;5.70;;;;;;;0.64;77.81;100184.16;5072770;28;20052;-78
2023/01/29 10:16:08;;;;;;;9.63;3.60;;;;;;;0.73;75.63;100197.94;5083590;28;20048;-78
2023/01/29 10:18:56;;;;;;;4.03;3.35;;;;;;;0.54;76.39;100172.31;5093497;28;20059;-78
2023/01/29 10:21:37;;;;;;;4.25;3.08;;;;;;;0.70;74.50;100194.47;5074020;28;20056;-78
2023/01/29 10:24:17;;;;;;;14.07;7.63;;;;;;;0.91;77.68;100204.78;5072338;28;20064;-78
2023/01/29 10:26:44;;;;;;;5.78;3.50;;;;;;;0.83;74.22;100183.03;5090234;28;20048;-78
2023/01/29 10:29:17;;;;;;;5.30;3.88;;;;;;;0.77;74.87;100165.53;5079375;28;20052;-78
2023/01/29 10:31:46;;;;;;;10.10;7.00;;;;;;;0.77;73.46;100167.31;5091292;28;20070;-78
2023/01/29 10:34:19;;;;;;;6.63;3.58;;;;;;;0.53;74.67;100195.53;5088237;28;20049;-78
2023/01/29 10:36:47;;;;;;;5.15;3.83;;;;;;;0.25;73.51;100199.06;5091959;28;20054;-78
2023/01/29 10:39:19;;;;;;;5.72;3.55;;;;;;;0.28;74.12;100204.22;5091482;28;20055;-78
2023/01/29 10:42:14;;;;;;;6.13;3.85;;;;;;;0.24;74.31;100223.22;5089096;28;20081;-78
2023/01/29 10:44:56;;;;;;;7.38;3.78;;;;;;;0.23;76.50;100184.94;5083265;28;20484;-78
2023/01/29 10:47:42;;;;;;;7.30;4.60;;;;;;;0.46;76.90;100178.13;5076359;28;20074;-77
2023/01/29 10:50:18;;;;;;;6.68;4.40;;;;;;;0.61;74.79;100184.34;5084225;28;20044;-78
2023/01/29 10:53:02;;;;;;;6.10;4.10;;;;;;;0.57;73.87;100204.22;5080259;28;20056;-78
2023/01/29 10:55:41;;;;;;;10.07;4.32;;;;;;;0.54;73.15;100212.44;5084002;28;20048;-77
2023/01/29 10:58:18;;;;;;;8.03;4.47;;;;;;;0.39;73.05;100190.16;5082409;28;20052;-77
2023/01/29 11:00:45;;;;;;;7.50;4.32;;;;;;;0.46;73.34;100193.34;5087864;28;20522;-78
2023/01/29 11:03:17;;;;;;;7.38;5.10;;;;;;;0.60;74.30;100177.28;5084601;28;20483;-78
2023/01/29 11:05:50;;;;;;;7.05;4.10;;;;;;;0.76;72.72;100201.28;5090319;28;20055;-78
2023/01/29 11:08:22;;;;;;;6.78;4.53;;;;;;;0.34;73.50;100197.63;5084698;28;20063;-77
2023/01/29 11:10:59;;;;;;;6.28;4.22;;;;;;;0.42;74.61;100182.00;5087125;28;20459;-77
2023/01/29 11:13:32;;;;;;;11.82;5.88;;;;;;;0.57;73.91;100171.28;5089475;28;20048;-78
2023/01/29 11:16:04;;;;;;;10.05;5.50;;;;;;;0.65;72.99;100152.94;5087426;28;20052;-79
2023/01/29 11:18:53;;;;;;;6.57;4.63;;;;;;;0.63;73.33;100145.00;5082292;28;20058;-77
2023/01/29 11:21:20;;;;;;;6.57;5.03;;;;;;;0.58;74.42;100135.53;5075650;28;20049;-78
2023/01/29 11:23:46;;;;;;;9.90;5.95;;;;;;;0.62;74.89;100135.25;5079757;28;20047;-77
2023/01/29 11:26:19;;;;;;;12.00;5.47;;;;;;;0.41;74.33;100132.09;5075220;28;20045;-78
2023/01/29 11:28:47;;;;;;;8.27;4.93;;;;;;;0.76;74.54;100157.59;5074154;28;20055;-78
2023/01/29 11:31:25;;;;;;;8.38;5.88;;;;;;;0.46;75.25;100124.63;5083479;28;20052;-78
2023/01/29 11:34:01;;;;;;;152.32;49.80;;;;;;;0.52;76.18;100128.75;5085862;28;20048;-78
2023/01/29 11:36:34;;;;;;;38.97;17.67;;;;;;;0.61;75.33;100144.22;5087246;28;20495;-78
2023/01/29 11:39:12;;;;;;;47.88;17.38;;;;;;;0.62;75.63;100145.94;5071222;28;20046;-77
2023/01/29 11:41:47;;;;;;;14.07;8.10;;;;;;;0.58;76.38;100128.34;5085855;28;20048;-78
2023/01/29 11:44:29;;;;;;;9.65;5.53;;;;;;;0.59;75.12;100129.19;5080004;28;20052;-78
2023/01/29 11:46:57;;;;;;;9.13;4.72;;;;;;;0.46;74.78;100167.44;5078205;28;20725;-78
2023/01/29 11:49:32;;;;;;;10.10;5.30;;;;;;;0.28;75.45;100136.50;5084671;28;20097;-78
2023/01/29 11:52:01;;;;;;;8.82;5.10;;;;;;;0.13;76.71;100119.59;5071089;28;20165;-78
2023/01/29 11:54:34;;;;;;;9.50;4.95;;;;;;;0.33;76.17;100139.72;5084185;28;20446;-78
2023/01/29 11:57:03;;;;;;;10.20;5.30;;;;;;;0.17;76.43;100121.13;5083179;28;20044;-78
2023/01/29 11:59:38;;;;;;;9.60;5.25;;;;;;;0.34;76.30;100142.31;5089036;28;20051;-78
2023/01/29 12:02:20;;;;;;;7.93;4.88;;;;;;;0.38;77.53;100102.88;5075659;28;20059;-78
2023/01/29 12:04:48;;;;;;;12.20;5.55;;;;;;;0.47;75.34;100090.72;5079042;28;20411;-78